Time;durP1;ratioP1;P1;durP2;ratioP2;P2;SDS_P1;SDS_P2;PMS_P1;PMS_P2;Temp;Humidity;BMP_temperature;BMP_pressure;BME280_temperature;BME280_humidity;BME280_pressure;Samples;Min_cycle;Max_cycle;Signal;HPM_P1;HPM_P2
2023/06/18 00:01:27;;;;;;;8.20;5.57;;;21.70;43.30;;;;;;4989176;28;20218;-76
2023/06/18 00:03:52;;;;;;;6.57;5.43;;;21.60;43.60;;;;;;4991285;28;20642;-75
2023/06/18 00:06:18;;;;;;;8.13;6.83;;;21.60;43.50;;;;;;4990089;28;20191;-75
2023/06/18 00:08:45;;;;;;;7.43;5.63;;;21.60;44.20;;;;;;4985128;28;20610;-75
2023/06/18 00:11:10;;;;;;;8.30;6.33;;;21.60;43.80;;;;;;4962188;28;20258;-76
2023/06/18 00:13:36;;;;;;;7.93;6.37;;;21.60;43.90;;;;;;4972582;28;21218;-77
2023/06/18 00:16:02;;;;;;;7.23;5.63;;;21.70;44.20;;;;;;4971645;28;20237;-77
2023/06/18 00:18:28;;;;;;;6.90;6.07;;;21.70;44.00;;;;;;4972356;28;20303;-77
2023/06/18 00:20:53;;;;;;;8.87;6.90;;;21.60;44.00;;;;;;4970386;28;20627;-77
2023/06/18 00:23:20;;;;;;;7.83;7.03;;;21.70;44.60;;;;;;4971872;28;20176;-77
2023/06/18 00:25:46;;;;;;;9.20;7.40;;;21.70;44.80;;;;;;4970507;28;20207;-78
2023/06/18 00:28:11;;;;;;;8.90;7.10;;;21.70;44.60;;;;;;4970069;28;20599;-77
2023/06/18 00:30:37;;;;;;;8.07;6.27;;;21.70;45.60;;;;;;4970485;28;20184;-77
2023/06/18 00:33:03;;;;;;;7.47;6.27;;;21.70;44.80;;;;;;4954197;28;20249;-78
2023/06/18 00:35:31;;;;;;;6.67;5.47;;;21.70;44.70;;;;;;4970757;28;20922;-78
2023/06/18 00:37:59;;;;;;;7.00;6.30;;;21.70;45.10;;;;;;4954116;28;20642;-77
2023/06/18 00:40:24;;;;;;;7.00;5.10;;;21.70;44.80;;;;;;4970426;28;20598;-78
2023/06/18 00:42:52;;;;;;;7.80;5.87;;;21.70;44.80;;;;;;4954208;28;20934;-77
2023/06/18 00:45:18;;;;;;;6.17;5.57;;;21.80;44.90;;;;;;4971800;28;20188;-77
2023/06/18 00:47:44;;;;;;;9.63;5.30;;;21.80;45.00;;;;;;4970384;28;21202;-78
2023/06/18 00:50:16;;;;;;;5.97;5.40;;;21.80;45.10;;;;;;4971477;28;20238;-78
2023/06/18 00:52:44;;;;;;;7.40;5.90;;;21.80;45.30;;;;;;4970019;28;20580;-78
2023/06/18 00:55:17;;;;;;;7.50;5.10;;;21.80;45.30;;;;;;4970487;28;20583;-77
2023/06/18 00:57:59;;;;;;;5.30;4.70;;;21.80;45.60;;;;;;4970402;28;20587;-78
2023/06/18 01:00:26;;;;;;;7.00;4.83;;;21.80;45.40;;;;;;4970516;28;20583;-77
2023/06/18 01:02:53;;;;;;;7.53;5.00;;;21.80;45.50;;;;;;4954218;28;20623;-77
2023/06/18 01:05:20;;;;;;;6.90;5.43;;;21.80;45.70;;;;;;4983713;28;20941;-77
2023/06/18 01:07:47;;;;;;;6.10;4.23;;;21.80;45.50;;;;;;4991351;28;20581;-77
2023/06/18 01:10:15;;;;;;;9.33;5.57;;;21.80;45.80;;;;;;4989361;28;20630;-77
2023/06/18 01:12:42;;;;;;;6.00;5.30;;;21.80;45.70;;;;;;4989782;28;20621;-76
2023/06/18 01:15:10;;;;;;;4.80;4.30;;;21.80;45.70;;;;;;4969230;28;20597;-76
2023/06/18 01:17:47;;;;;;;4.57;4.17;;;21.80;45.70;;;;;;4993778;28;20700;-76
2023/06/18 01:20:18;;;;;;;8.23;5.10;;;21.80;45.90;;;;;;4992838;28;20597;-77
2023/06/18 01:23:10;;;;;;;4.40;4.00;;;21.70;45.80;;;;;;4993114;28;20582;-77
2023/06/18 01:25:37;;;;;;;6.50;5.20;;;21.70;45.80;;;;;;4969312;28;20638;-77
2023/06/18 01:28:07;;;;;;;9.50;5.63;;;21.60;46.50;;;;;;4973094;28;20646;-77
2023/06/18 01:30:39;;;;;;;6.33;5.10;;;21.50;46.40;;;;;;4960288;28;20594;-77
2023/06/18 01:33:09;;;;;;;6.40;4.70;;;21.50;46.00;;;;;;4973830;28;20575;-77
2023/06/18 01:35:34;;;;;;;6.23;4.80;;;21.40;45.90;;;;;;4973272;28;20630;-77
2023/06/18 01:38:24;;;;;;;4.40;3.90;;;21.40;46.00;;;;;;4956866;28;20638;-77
2023/06/18 01:41:08;;;;;;;6.93;4.90;;;21.40;46.30;;;;;;4972469;28;20587;-77
2023/06/18 01:43:49;;;;;;;5.33;4.60;;;21.40;46.20;;;;;;4957098;28;20599;-77
2023/06/18 01:46:20;;;;;;;7.33;5.00;;;21.30;46.50;;;;;;4972187;28;21241;-77
2023/06/18 01:48:51;;;;;;;4.60;4.03;;;21.30;46.20;;;;;;4974673;28;20567;-77
2023/06/18 01:51:20;;;;;;;9.10;4.50;;;21.30;46.30;;;;;;4940753;28;20583;-76
2023/06/18 01:53:48;;;;;;;5.03;4.47;;;21.20;46.30;;;;;;4972734;28;20590;-76
2023/06/18 01:56:14;;;;;;;5.00;4.50;;;21.10;46.20;;;;;;4973114;28;20629;-77
2023/06/18 01:58:46;;;;;;;4.80;4.30;;;21.10;46.50;;;;;;4956477;28;20635;-77
2023/06/18 02:01:12;;;;;;;4.47;4.07;;;21.00;46.50;;;;;;4977386;28;20599;-77
2023/06/18 02:03:39;;;;;;;5.30;4.00;;;21.00;46.60;;;;;;4972775;28;20563;-76
2023/06/18 02:06:05;;;;;;;6.43;4.10;;;20.90;46.40;;;;;;4989008;28;20706;-77
2023/06/18 02:08:31;;;;;;;5.67;3.60;;;20.90;46.50;;;;;;4940372;28;20573;-77
2023/06/18 02:10:58;;;;;;;5.93;4.37;;;20.90;46.60;;;;;;4973933;28;20593;-77
2023/06/18 02:13:24;;;;;;;4.90;4.33;;;20.80;46.60;;;;;;4988558;28;21186;-76
2023/06/18 02:15:50;;;;;;;4.90;4.33;;;20.80;46.80;;;;;;4973812;28;20662;-76
2023/06/18 02:18:17;;;;;;;5.30;4.80;;;20.70;47.10;;;;;;4972506;28;20689;-76
2023/06/18 02:20:44;;;;;;;4.70;4.10;;;20.60;47.00;;;;;;4972652;28;20587;-76
2023/06/18 02:23:09;;;;;;;5.77;5.17;;;20.60;47.10;;;;;;4956541;28;20583;-75
2023/06/18 02:25:35;;;;;;;4.80;3.90;;;20.60;47.20;;;;;;4955930;28;21146;-76
2023/06/18 02:28:02;;;;;;;5.27;4.33;;;20.60;47.20;;;;;;4973043;28;20670;-76
2023/06/18 02:30:29;;;;;;;5.93;5.10;;;20.60;48.20;;;;;;4987883;28;20583;-76
2023/06/18 02:32:58;;;;;;;6.47;5.20;;;20.50;48.50;;;;;;4972714;28;20586;-76
2023/06/18 02:35:25;;;;;;;5.30;4.37;;;20.50;48.00;;;;;;4981875;28;20601;-78
2023/06/18 02:37:51;;;;;;;5.63;4.87;;;20.50;47.80;;;;;;4991721;28;20946;-78
2023/06/18 02:40:16;;;;;;;5.40;4.43;;;20.40;47.80;;;;;;4991173;28;20586;-77
2023/06/18 02:42:48;;;;;;;5.63;4.00;;;20.40;47.70;;;;;;4991634;28;20182;-77
2023/06/18 02:45:20;;;;;;;7.03;4.80;;;20.40;48.30;;;;;;4997975;28;20510;-77
2023/06/18 02:47:47;;;;;;;8.90;3.93;;;20.30;48.00;;;;;;4992382;28;20586;-78
2023/06/18 02:50:15;;;;;;;4.50;4.07;;;20.40;48.10;;;;;;4975028;28;20974;-77
2023/06/18 02:52:42;;;;;;;5.43;4.50;;;20.40;48.30;;;;;;4975369;28;20946;-77
2023/06/18 02:55:09;;;;;;;6.77;4.57;;;20.40;48.30;;;;;;4991616;28;20593;-77
2023/06/18 02:57:35;;;;;;;6.63;4.70;;;20.30;49.20;;;;;;4991429;28;20676;-77
2023/06/18 03:00:10;;;;;;;5.40;4.90;;;20.20;48.50;;;;;;4991124;28;20621;-77
2023/06/18 03:02:38;;;;;;;6.10;4.37;;;20.20;48.70;;;;;;4991036;28;20955;-77
2023/06/18 03:05:06;;;;;;;4.40;3.83;;;20.10;48.70;;;;;;4991392;28;20585;-77
2023/06/18 03:07:33;;;;;;;5.83;5.10;;;20.10;48.60;;;;;;4990877;28;20610;-77
2023/06/18 03:09:59;;;;;;;5.80;4.80;;;20.10;49.90;;;;;;4974890;28;20637;-78
2023/06/18 03:12:25;;;;;;;7.50;4.70;;;20.00;49.10;;;;;;4958354;28;20248;-76
2023/06/18 03:14:52;;;;;;;6.20;4.87;;;20.00;49.20;;;;;;4991077;28;20597;-77
2023/06/18 03:17:21;;;;;;;5.07;4.57;;;20.00;49.00;;;;;;4974549;28;20606;-78
2023/06/18 03:19:48;;;;;;;6.20;5.60;;;19.90;48.90;;;;;;4990989;28;20732;-77
2023/06/18 03:22:14;;;;;;;5.60;4.67;;;19.90;49.00;;;;;;4990337;28;21021;-77
2023/06/18 03:24:40;;;;;;;6.70;4.53;;;20.00;49.20;;;;;;4990870;28;20175;-77
2023/06/18 03:27:07;;;;;;;4.93;4.40;;;19.90;49.40;;;;;;4974019;28;20614;-77
2023/06/18 03:29:36;;;;;;;5.27;4.77;;;19.90;49.20;;;;;;4990657;28;20581;-77
2023/06/18 03:32:03;;;;;;;7.20;5.80;;;19.90;49.70;;;;;;4979693;28;20556;-75
2023/06/18 03:34:32;;;;;;;5.97;4.30;;;19.80;49.80;;;;;;4986407;28;20949;-76
2023/06/18 03:37:00;;;;;;;5.67;5.07;;;19.80;49.70;;;;;;4990858;28;20621;-77
2023/06/18 03:39:28;;;;;;;3.97;3.57;;;19.80;49.80;;;;;;4973194;28;20637;-77
2023/06/18 03:41:54;;;;;;;6.23;4.73;;;19.80;49.70;;;;;;4991633;28;20624;-76
2023/06/18 03:44:21;;;;;;;7.03;4.73;;;19.80;49.80;;;;;;4990114;28;20597;-77
2023/06/18 03:46:46;;;;;;;5.80;5.20;;;19.80;50.30;;;;;;4990613;28;20618;-77
2023/06/18 03:49:13;;;;;;;4.87;4.37;;;19.70;50.20;;;;;;4989708;28;20685;-77
2023/06/18 03:51:39;;;;;;;5.53;4.80;;;19.70;50.50;;;;;;4990246;28;20589;-77
2023/06/18 03:54:05;;;;;;;5.10;4.20;;;19.60;50.60;;;;;;4973782;28;20566;-77
2023/06/18 03:56:31;;;;;;;5.63;5.03;;;19.60;50.70;;;;;;4990437;28;20191;-78
2023/06/18 03:58:57;;;;;;;4.80;4.40;;;19.60;51.40;;;;;;4990067;28;20693;-78
2023/06/18 04:01:24;;;;;;;6.20;4.90;;;19.60;51.50;;;;;;4989626;28;20620;-77
2023/06/18 04:03:50;;;;;;;9.47;5.27;;;19.60;52.30;;;;;;4974106;28;20578;-78
2023/06/18 04:06:15;;;;;;;6.50;5.17;;;19.60;51.20;;;;;;4973621;28;20657;-77
2023/06/18 04:08:44;;;;;;;5.60;4.13;;;19.60;51.50;;;;;;4990265;28;20179;-78
2023/06/18 04:11:13;;;;;;;4.20;3.80;;;19.60;50.90;;;;;;4973627;28;20181;-77
2023/06/18 04:13:41;;;;;;;6.93;4.83;;;19.70;51.00;;;;;;4990296;28;20644;-77
2023/06/18 04:16:09;;;;;;;4.33;3.90;;;19.70;51.30;;;;;;4973567;28;20598;-78
2023/06/18 04:18:35;;;;;;;6.10;5.50;;;19.70;51.20;;;;;;4990202;28;20625;-77
2023/06/18 04:21:02;;;;;;;6.17;4.20;;;19.70;51.70;;;;;;4990879;28;20674;-78
2023/06/18 04:23:30;;;;;;;6.10;4.50;;;19.80;51.10;;;;;;4973878;28;20685;-77
2023/06/18 04:25:56;;;;;;;4.77;4.27;;;19.80;51.50;;;;;;4973108;28;20701;-77
2023/06/18 04:28:22;;;;;;;6.50;4.73;;;19.90;51.30;;;;;;4983571;28;20183;-77
2023/06/18 04:30:48;;;;;;;6.80;4.67;;;20.00;51.30;;;;;;4972154;28;20241;-77
2023/06/18 04:33:14;;;;;;;5.60;5.00;;;20.00;52.00;;;;;;4989766;28;20586;-77
2023/06/18 04:35:41;;;;;;;5.13;4.63;;;20.10;51.90;;;;;;4974171;28;20626;-77
2023/06/18 04:38:10;;;;;;;4.37;3.97;;;20.20;51.50;;;;;;4989573;28;20638;-77
2023/06/18 04:40:37;;;;;;;5.50;3.63;;;20.30;51.50;;;;;;4989386;28;20586;-78
2023/06/18 04:43:03;;;;;;;5.13;3.80;;;20.40;51.20;;;;;;4989183;28;20725;-77
2023/06/18 04:45:33;;;;;;;5.13;4.60;;;20.50;51.20;;;;;;4973958;28;20587;-77
2023/06/18 04:47:59;;;;;;;4.93;4.47;;;20.60;51.00;;;;;;4989402;28;20601;-77
2023/06/18 04:50:25;;;;;;;7.10;4.80;;;20.70;51.00;;;;;;4991986;28;20594;-78
2023/06/18 04:52:51;;;;;;;4.40;4.00;;;20.70;50.90;;;;;;4993577;28;20555;-78
2023/06/18 04:55:18;;;;;;;4.07;3.40;;;20.80;50.80;;;;;;4977764;28;20278;-78
2023/06/18 04:57:45;;;;;;;3.40;3.10;;;21.00;50.80;;;;;;4993236;28;20574;-78
2023/06/18 05:00:11;;;;;;;4.37;3.60;;;21.10;50.70;;;;;;4977625;28;20926;-78
2023/06/18 05:02:41;;;;;;;5.77;4.07;;;21.20;50.60;;;;;;4993526;28;20609;-77
2023/06/18 05:05:08;;;;;;;6.23;4.57;;;21.30;50.40;;;;;;4993376;28;20581;-76
2023/06/18 05:07:34;;;;;;;5.63;4.90;;;21.30;50.30;;;;;;4977235;28;20290;-76
2023/06/18 05:10:01;;;;;;;4.20;3.80;;;21.50;50.30;;;;;;4976793;28;20678;-77
2023/06/18 05:12:27;;;;;;;4.53;4.10;;;21.60;50.20;;;;;;4976999;28;20187;-76
2023/06/18 05:14:53;;;;;;;5.67;4.30;;;21.70;50.20;;;;;;4993280;28;20652;-76
2023/06/18 05:17:22;;;;;;;5.40;4.27;;;21.90;50.10;;;;;;4977306;28;20638;-78
2023/06/18 05:19:47;;;;;;;6.50;4.60;;;22.00;49.40;;;;;;4992736;28;20281;-76
2023/06/18 05:22:14;;;;;;;5.63;5.13;;;22.00;49.10;;;;;;4993330;28;20593;-77
2023/06/18 05:24:40;;;;;;;5.10;4.60;;;22.00;49.00;;;;;;4993035;28;20601;-76
2023/06/18 05:27:06;;;;;;;4.40;4.00;;;22.10;48.90;;;;;;4976789;28;20198;-77
2023/06/18 05:29:32;;;;;;;4.50;4.10;;;22.20;48.90;;;;;;4976778;28;20218;-77
2023/06/18 05:31:58;;;;;;;5.37;3.90;;;22.20;48.80;;;;;;4992744;28;21002;-77
2023/06/18 05:34:29;;;;;;;6.10;5.60;;;22.10;48.60;;;;;;4993339;28;20225;-77
2023/06/18 05:36:55;;;;;;;6.87;4.80;;;22.10;48.60;;;;;;4992633;28;20618;-77
2023/06/18 05:39:21;;;;;;;6.80;4.27;;;22.20;48.80;;;;;;4976846;28;20295;-77
2023/06/18 05:41:50;;;;;;;5.50;4.93;;;22.30;48.80;;;;;;4976414;28;20661;-77
2023/06/18 05:44:17;;;;;;;4.87;3.93;;;22.50;48.90;;;;;;4993751;28;20179;-77
2023/06/18 05:46:42;;;;;;;5.37;4.27;;;22.60;49.00;;;;;;4993825;28;20621;-77
2023/06/18 05:49:09;;;;;;;7.03;4.33;;;22.70;48.80;;;;;;4976686;28;20182;-77
2023/06/18 05:51:36;;;;;;;5.23;4.73;;;22.80;48.40;;;;;;4992252;28;20589;-77
2023/06/18 05:54:04;;;;;;;6.17;4.43;;;22.90;47.90;;;;;;4993015;28;20590;-77
2023/06/18 05:56:30;;;;;;;7.57;4.27;;;23.10;48.00;;;;;;4992383;28;20721;-78
2023/06/18 05:58:56;;;;;;;6.47;3.90;;;23.20;48.30;;;;;;4976693;28;20206;-78
2023/06/18 06:01:22;;;;;;;7.23;4.37;;;23.40;48.40;;;;;;4991598;28;20618;-77
2023/06/18 06:03:47;;;;;;;4.90;4.40;;;23.60;48.50;;;;;;4992537;28;20651;-77
2023/06/18 06:06:13;;;;;;;4.57;3.90;;;23.90;48.30;;;;;;4992667;28;20249;-77
2023/06/18 06:08:39;;;;;;;5.13;4.63;;;24.20;48.00;;;;;;4992324;28;20554;-78
2023/06/18 06:11:08;;;;;;;6.13;4.53;;;24.30;47.40;;;;;;4992679;28;21141;-78
2023/06/18 06:13:34;;;;;;;5.00;4.20;;;24.50;47.10;;;;;;4976022;28;20594;-78
2023/06/18 06:16:06;;;;;;;7.43;4.50;;;24.90;47.80;;;;;;4993782;28;20961;-77
2023/06/18 06:18:31;;;;;;;5.87;4.00;;;25.10;47.00;;;;;;4992059;28;20732;-76
2023/06/18 06:20:58;;;;;;;4.83;4.33;;;25.40;47.00;;;;;;4976337;28;20171;-77
2023/06/18 06:23:24;;;;;;;4.33;3.67;;;25.70;47.30;;;;;;4993487;28;20631;-77
2023/06/18 06:25:50;;;;;;;4.70;4.00;;;26.10;47.10;;;;;;4992185;28;20237;-75
2023/06/18 06:28:16;;;;;;;6.00;3.63;;;26.30;45.80;;;;;;4991812;28;20644;-77
2023/06/18 06:30:42;;;;;;;4.33;3.87;;;26.60;46.30;;;;;;4975919;28;20590;-77
2023/06/18 06:33:08;;;;;;;7.30;3.27;;;26.90;46.10;;;;;;4992114;28;20694;-77
2023/06/18 06:35:34;;;;;;;4.00;3.60;;;27.30;46.40;;;;;;4991732;28;20578;-77
2023/06/18 06:38:00;;;;;;;4.57;3.27;;;27.90;46.50;;;;;;4975966;28;20183;-78
2023/06/18 06:40:27;;;;;;;4.33;3.57;;;28.40;46.40;;;;;;4992984;28;20628;-78
2023/06/18 06:42:53;;;;;;;4.33;3.10;;;28.90;45.50;;;;;;4991826;28;20644;-78
2023/06/18 06:45:25;;;;;;;8.83;5.63;;;29.40;45.20;;;;;;4991749;28;20618;-78
2023/06/18 06:48:16;;;;;;;5.40;3.90;;;29.60;44.10;;;;;;4992163;28;21136;-78
2023/06/18 06:51:02;;;;;;;4.10;3.63;;;29.70;43.10;;;;;;4990924;28;20580;-77
2023/06/18 06:53:34;;;;;;;4.40;3.40;;;29.80;42.60;;;;;;4991791;28;20571;-78
2023/06/18 06:56:03;;;;;;;3.33;3.03;;;29.90;42.60;;;;;;4975254;28;20617;-78
2023/06/18 06:58:31;;;;;;;4.07;3.10;;;30.10;42.50;;;;;;4975391;28;20642;-78
2023/06/18 07:00:57;;;;;;;5.20;3.30;;;30.30;42.20;;;;;;4974644;28;21200;-76
2023/06/18 07:03:23;;;;;;;4.07;2.97;;;30.50;42.00;;;;;;4992779;28;20183;-78
2023/06/18 07:05:52;;;;;;;3.50;3.20;;;30.70;41.90;;;;;;4992351;28;20190;-78
2023/06/18 07:08:17;;;;;;;9.20;3.70;;;31.00;41.00;;;;;;4975194;28;20183;-78
2023/06/18 07:10:43;;;;;;;4.87;3.60;;;31.20;41.20;;;;;;4975055;28;20600;-78
2023/06/18 07:13:09;;;;;;;7.03;3.07;;;31.50;40.70;;;;;;4991223;28;20191;-79
2023/06/18 07:15:34;;;;;;;6.93;3.53;;;31.60;40.30;;;;;;4991312;28;20238;-78
2023/06/18 07:18:00;;;;;;;3.87;3.47;;;31.90;40.40;;;;;;4987258;28;20175;-77
2023/06/18 07:20:26;;;;;;;5.33;4.17;;;32.00;38.90;;;;;;4971898;28;20183;-77
2023/06/18 07:22:52;;;;;;;3.67;3.37;;;32.10;38.40;;;;;;4971227;28;21126;-78
2023/06/18 07:25:18;;;;;;;4.17;3.10;;;32.00;37.10;;;;;;4972819;28;20184;-78
2023/06/18 07:27:43;;;;;;;4.63;3.20;;;32.10;37.90;;;;;;4971577;28;20561;-78
2023/06/18 07:30:10;;;;;;;3.90;2.97;;;32.30;38.00;;;;;;4955601;28;20642;-78
2023/06/18 07:32:35;;;;;;;3.80;3.03;;;32.50;38.00;;;;;;4971368;28;20237;-78
2023/06/18 07:35:02;;;;;;;3.73;3.33;;;32.50;37.10;;;;;;4972976;28;20586;-78
2023/06/18 07:37:28;;;;;;;3.63;3.10;;;32.40;36.80;;;;;;4971152;28;20622;-78
2023/06/18 07:39:54;;;;;;;4.10;3.70;;;32.30;37.20;;;;;;4972890;28;20627;-78
2023/06/18 07:42:20;;;;;;;5.30;2.83;;;32.30;36.60;;;;;;4971407;28;20272;-78
2023/06/18 07:44:46;;;;;;;5.20;3.70;;;32.50;37.20;;;;;;4972617;28;21128;-78
2023/06/18 07:47:12;;;;;;;4.17;2.90;;;32.70;36.40;;;;;;4971668;28;20696;-78
2023/06/18 07:49:37;;;;;;;3.70;3.30;;;32.90;36.70;;;;;;4972898;28;20210;-77
2023/06/18 07:52:03;;;;;;;3.43;3.10;;;33.10;36.30;;;;;;4971393;28;20233;-78
2023/06/18 07:54:30;;;;;;;3.40;3.10;;;33.20;36.80;;;;;;4971324;28;20179;-79
2023/06/18 07:56:56;;;;;;;4.87;3.10;;;33.50;36.90;;;;;;4955022;28;20618;-78
2023/06/18 07:59:21;;;;;;;5.27;3.27;;;33.60;36.00;;;;;;4971867;28;21166;-78
2023/06/18 08:01:47;;;;;;;3.13;2.83;;;33.70;36.00;;;;;;4970744;28;20303;-79
2023/06/18 08:04:13;;;;;;;3.67;3.27;;;33.80;35.80;;;;;;4970882;28;20547;-78
2023/06/18 08:06:38;;;;;;;4.93;2.63;;;34.00;35.90;;;;;;4972239;28;20198;-78
2023/06/18 08:09:04;;;;;;;5.83;3.60;;;34.20;35.80;;;;;;4970118;28;20180;-83
2023/06/18 08:11:51;;;;;;;3.33;3.03;;;34.40;35.30;;;;;;4969436;28;20179;-83
2023/06/18 08:14:59;;;;;;;3.27;2.97;;;34.40;34.80;;;;;;4969509;28;20206;-84
2023/06/18 08:17:25;;;;;;;3.50;3.10;;;34.60;35.10;;;;;;5011494;28;20622;-82
2023/06/18 08:19:50;;;;;;;2.97;2.67;;;35.00;35.10;;;;;;4998284;28;20658;-83
2023/06/18 08:22:17;;;;;;;3.93;3.17;;;35.20;34.50;;;;;;4999145;28;20585;-83
2023/06/18 08:24:44;;;;;;;5.97;3.80;;;35.40;34.10;;;;;;4999014;28;20171;-83
2023/06/18 08:27:09;;;;;;;5.10;3.40;;;35.70;34.50;;;;;;5005529;28;20634;-82
2023/06/18 08:29:35;;;;;;;3.70;2.57;;;36.20;35.00;;;;;;5005022;28;21038;-83
2023/06/18 08:32:04;;;;;;;4.70;3.00;;;36.50;34.10;;;;;;5001153;28;20269;-83
2023/06/18 08:34:42;;;;;;;4.97;2.63;;;36.70;33.40;;;;;;5001677;28;20171;-83
2023/06/18 08:37:08;;;;;;;3.63;2.87;;;36.90;33.40;;;;;;4999665;28;20605;-83
2023/06/18 08:39:33;;;;;;;3.37;2.87;;;37.10;32.80;;;;;;4997687;28;20597;-83
2023/06/18 08:42:02;;;;;;;3.47;3.07;;;37.30;32.90;;;;;;4995466;28;20581;-83
2023/06/18 08:44:30;;;;;;;4.20;3.80;;;37.40;32.20;;;;;;4994150;28;20593;-83
2023/06/18 08:47:00;;;;;;;5.70;3.40;;;37.60;32.00;;;;;;4993150;28;20711;-83
2023/06/18 08:49:31;;;;;;;3.37;3.07;;;37.60;30.90;;;;;;5001535;28;20652;-83
2023/06/18 08:51:59;;;;;;;3.17;2.87;;;37.50;30.80;;;;;;5006605;28;20613;-83
2023/06/18 08:54:46;;;;;;;3.33;2.97;;;37.40;30.60;;;;;;4992575;28;20653;-83
2023/06/18 08:57:45;;;;;;;4.07;2.90;;;37.20;30.10;;;;;;4992534;28;20977;-84
2023/06/18 09:00:11;;;;;;;3.27;2.90;;;37.40;31.00;;;;;;4992818;28;20593;-84
2023/06/18 09:02:38;;;;;;;3.63;3.33;;;37.50;30.60;;;;;;4991860;28;20597;-84
2023/06/18 09:05:05;;;;;;;4.03;3.10;;;37.50;29.70;;;;;;5006125;28;20584;-83
2023/06/18 09:07:34;;;;;;;3.37;2.57;;;37.50;29.30;;;;;;5008158;28;20850;-82
2023/06/18 09:10:03;;;;;;;3.90;2.90;;;37.40;29.50;;;;;;5006712;28;20630;-83
2023/06/18 09:12:31;;;;;;;3.57;2.83;;;37.40;29.70;;;;;;4984040;28;20606;-82
2023/06/18 09:14:57;;;;;;;3.33;3.03;;;37.70;29.80;;;;;;4986823;28;20607;-83
2023/06/18 09:18:21;;;;;;;3.17;2.70;;;38.20;30.40;;;;;;4987254;28;20616;-82
2023/06/18 09:20:46;;;;;;;4.73;2.77;;;38.60;29.70;;;;;;4968719;28;20223;-81
2023/06/18 09:23:12;;;;;;;4.20;2.77;;;38.70;29.30;;;;;;4972660;28;21154;-81
2023/06/18 09:25:38;;;;;;;3.30;2.30;;;38.90;29.10;;;;;;4972589;28;20610;-81
2023/06/18 09:28:04;;;;;;;3.30;3.00;;;38.90;28.40;;;;;;4973919;28;20175;-82
2023/06/18 09:30:30;;;;;;;3.87;3.57;;;38.90;28.20;;;;;;4955825;28;20257;-82
2023/06/18 09:32:59;;;;;;;6.20;2.80;;;39.00;28.10;;;;;;4940306;28;21447;-81
2023/06/18 09:35:26;;;;;;;5.20;2.37;;;39.20;28.10;;;;;;4964743;28;20191;-81
2023/06/18 09:37:52;;;;;;;3.27;2.97;;;39.40;28.10;;;;;;5012998;28;20663;-81
2023/06/18 09:40:21;;;;;;;3.87;2.50;;;39.80;28.10;;;;;;5010792;28;20580;-81
2023/06/18 09:42:51;;;;;;;5.63;3.27;;;40.10;28.10;;;;;;5011344;28;20593;-81
2023/06/18 09:45:17;;;;;;;3.80;2.80;;;40.50;28.40;;;;;;5012362;28;20974;-81
2023/06/18 09:47:47;;;;;;;3.00;2.70;;;40.90;28.10;;;;;;5027831;28;20581;-80
2023/06/18 09:50:13;;;;;;;3.10;2.80;;;41.20;28.00;;;;;;5010630;28;21012;-81
2023/06/18 09:52:47;;;;;;;2.87;2.60;;;41.50;27.90;;;;;;5010879;28;20655;-81
2023/06/18 09:55:31;;;;;;;5.23;2.87;;;41.90;27.60;;;;;;5011307;28;20609;-81
2023/06/18 09:57:58;;;;;;;3.23;2.47;;;42.20;27.60;;;;;;5011370;28;20589;-82
2023/06/18 10:00:25;;;;;;;2.50;2.30;;;42.70;27.20;;;;;;5026764;28;21451;-82
2023/06/18 10:02:50;;;;;;;3.80;3.03;;;42.90;26.70;;;;;;5011859;28;20592;-81
2023/06/18 10:05:16;;;;;;;3.77;2.70;;;43.10;26.50;;;;;;5002914;28;20622;-81
2023/06/18 10:07:43;;;;;;;4.80;2.70;;;43.20;26.40;;;;;;4990840;28;20281;-81
2023/06/18 10:14:00;;;;;;;4.50;2.40;;;43.30;26.40;;;;;;5005811;28;21225;-81
2023/06/18 10:16:32;;;;;;;4.47;3.27;;;43.30;25.60;;;;;;4998437;28;20942;-81
2023/06/18 10:19:06;;;;;;;2.83;2.23;;;43.00;25.60;;;;;;5007461;28;20605;-81
2023/06/18 10:21:36;;;;;;;2.93;2.73;;;42.80;25.50;;;;;;4990467;28;20605;-81
2023/06/18 10:24:14;;;;;;;3.43;2.77;;;42.70;25.70;;;;;;4990849;28;20595;-81
2023/06/18 10:26:41;;;;;;;3.17;2.97;;;42.60;26.00;;;;;;4992141;28;20622;-81
2023/06/18 10:29:07;;;;;;;4.30;2.83;;;42.70;25.90;;;;;;4989686;28;20634;-81
2023/06/18 10:31:33;;;;;;;4.57;3.00;;;42.70;26.00;;;;;;4991322;28;20935;-81
2023/06/18 10:33:59;;;;;;;3.00;2.50;;;42.80;25.80;;;;;;4990143;28;20734;-81
2023/06/18 10:36:26;;;;;;;2.67;2.33;;;42.90;25.70;;;;;;5000023;28;20702;-81
2023/06/18 10:38:52;;;;;;;2.23;1.97;;;43.00;25.70;;;;;;5009980;28;20574;-81
2023/06/18 10:41:21;;;;;;;3.00;2.80;;;43.20;25.90;;;;;;5009793;28;20704;-81
2023/06/18 10:43:55;;;;;;;2.60;2.40;;;43.30;25.90;;;;;;4993453;28;21196;-81
2023/06/18 10:46:21;;;;;;;2.57;2.37;;;43.50;25.40;;;;;;5010070;28;20209;-81
2023/06/18 10:49:16;;;;;;;4.13;3.07;;;43.60;25.10;;;;;;5009187;28;20647;-81
2023/06/18 10:52:01;;;;;;;2.33;2.00;;;43.50;24.90;;;;;;5010677;28;20596;-81
2023/06/18 10:54:33;;;;;;;2.90;2.30;;;43.50;24.90;;;;;;5011103;28;20588;-81
2023/06/18 10:57:01;;;;;;;3.83;3.00;;;43.40;24.70;;;;;;5010034;28;20632;-81
2023/06/18 10:59:48;;;;;;;2.57;2.37;;;43.30;24.60;;;;;;5009182;28;20588;-80
2023/06/18 11:02:14;;;;;;;4.43;2.80;;;43.20;24.40;;;;;;4996128;28;20637;-81
2023/06/18 11:04:40;;;;;;;3.80;2.70;;;43.10;24.60;;;;;;4991036;28;20616;-80
2023/06/18 11:07:27;;;;;;;6.03;2.77;;;43.10;24.70;;;;;;4990435;28;20297;-81
2023/06/18 11:09:58;;;;;;;3.80;2.53;;;43.10;24.90;;;;;;4989647;28;20740;-81
2023/06/18 11:12:33;;;;;;;4.10;2.07;;;43.20;24.70;;;;;;4991226;28;20636;-81
2023/06/18 11:15:08;;;;;;;3.87;2.40;;;43.30;24.80;;;;;;4990111;28;20605;-81
2023/06/18 11:17:33;;;;;;;2.87;2.50;;;43.30;24.40;;;;;;4991279;28;20612;-82
2023/06/18 11:20:01;;;;;;;2.53;2.33;;;43.30;24.20;;;;;;4989476;28;20685;-81
2023/06/18 11:22:30;;;;;;;2.97;2.43;;;43.20;24.20;;;;;;4990739;28;20562;-81
2023/06/18 11:25:00;;;;;;;3.10;2.87;;;43.00;23.90;;;;;;4990180;28;20582;-81
2023/06/18 11:27:27;;;;;;;3.60;2.53;;;42.50;23.50;;;;;;4990378;28;20610;-81
2023/06/18 11:29:59;;;;;;;3.17;2.87;;;42.00;23.60;;;;;;4989919;28;20733;-82
2023/06/18 11:32:26;;;;;;;3.70;3.40;;;41.50;23.50;;;;;;4990571;28;20657;-81
2023/06/18 11:34:54;;;;;;;4.13;3.30;;;40.90;23.40;;;;;;4989625;28;20629;-81
2023/06/18 11:37:20;;;;;;;4.70;2.70;;;40.20;23.60;;;;;;4989310;28;20625;-81
2023/06/18 11:39:47;;;;;;;3.90;3.03;;;39.70;24.00;;;;;;4990911;28;20957;-81
2023/06/18 11:42:20;;;;;;;3.70;3.40;;;39.30;24.30;;;;;;4989275;28;20621;-81
2023/06/18 11:44:47;;;;;;;3.43;3.13;;;39.10;24.90;;;;;;5006054;28;20980;-81
2023/06/18 11:47:13;;;;;;;3.40;3.10;;;38.80;25.00;;;;;;4990786;28;20628;-81
2023/06/18 11:49:47;;;;;;;3.27;2.97;;;38.60;25.40;;;;;;4989429;28;20649;-82
2023/06/18 11:52:16;;;;;;;4.00;3.57;;;38.50;25.80;;;;;;4988354;28;20171;-82
2023/06/18 11:54:43;;;;;;;3.50;3.20;;;38.60;26.00;;;;;;4988880;28;20582;-82
2023/06/18 11:57:13;;;;;;;3.20;2.90;;;38.70;26.40;;;;;;4988298;28;20660;-82
2023/06/18 11:59:40;;;;;;;4.60;3.33;;;38.90;26.30;;;;;;4987720;28;20591;-81
2023/06/18 12:02:23;;;;;;;4.50;2.63;;;39.00;26.10;;;;;;4988157;28;20614;-81
2023/06/18 12:04:50;;;;;;;4.73;2.57;;;39.10;26.40;;;;;;4990325;28;20645;-82
2023/06/18 12:07:36;;;;;;;3.40;3.10;;;39.10;26.20;;;;;;4989291;28;20630;-82
2023/06/18 12:10:07;;;;;;;3.30;2.80;;;39.20;26.20;;;;;;5004557;28;20646;-81
2023/06/18 12:13:18;;;;;;;3.47;3.00;;;39.20;25.90;;;;;;4990632;28;21112;-83
2023/06/18 12:16:01;;;;;;;3.70;2.93;;;39.10;25.70;;;;;;4975932;28;21278;-83
2023/06/18 12:18:34;;;;;;;3.67;3.10;;;39.00;25.30;;;;;;4983790;28;21106;-84
2023/06/18 12:21:00;;;;;;;6.00;2.90;;;39.00;25.60;;;;;;4997269;28;20598;-83
2023/06/18 12:23:27;;;;;;;3.50;2.90;;;38.80;25.50;;;;;;4989362;28;21307;-84
2023/06/18 12:25:53;;;;;;;4.27;2.60;;;38.50;25.60;;;;;;5005496;28;20614;-83
2023/06/18 12:28:23;;;;;;;6.00;2.43;;;38.50;26.00;;;;;;4972780;28;20663;-83
2023/06/18 12:30:51;;;;;;;6.03;3.53;;;38.30;26.10;;;;;;5004180;28;20596;-83
2023/06/18 12:33:18;;;;;;;4.20;3.13;;;38.20;26.10;;;;;;5005002;28;20582;-83
2023/06/18 12:35:50;;;;;;;2.93;2.63;;;38.20;26.20;;;;;;4995428;28;20625;-84
2023/06/18 12:38:16;;;;;;;3.43;2.77;;;38.10;26.10;;;;;;5013490;28;20593;-83
2023/06/18 12:40:51;;;;;;;5.77;3.10;;;38.00;26.20;;;;;;5028980;28;20596;-84
2023/06/18 12:43:18;;;;;;;4.10;3.70;;;37.80;26.10;;;;;;4990323;28;20613;-83
2023/06/18 12:45:49;;;;;;;3.43;3.00;;;37.70;26.20;;;;;;4989147;28;20968;-83
2023/06/18 12:48:17;;;;;;;3.77;3.37;;;37.50;26.50;;;;;;4990864;28;20593;-83
2023/06/18 12:50:46;;;;;;;3.90;2.97;;;37.30;26.40;;;;;;4994101;28;20960;-83
2023/06/18 12:53:17;;;;;;;2.97;2.60;;;37.00;26.50;;;;;;4973634;28;20626;-84
2023/06/18 12:55:44;;;;;;;3.37;3.07;;;36.80;26.50;;;;;;4988608;28;20704;-84
2023/06/18 12:58:22;;;;;;;3.90;3.00;;;36.50;26.60;;;;;;4989969;28;20896;-84
2023/06/18 13:00:48;;;;;;;4.53;3.73;;;36.20;26.90;;;;;;4988980;28;20603;-84